Aztec, New Mexico
Current Conditions -  °F | °C
As of 2:53 PM on Sunday 21 Dec 2014 (Local Time) from KFMN Reporting Station
Clear Clear  
Wind Chill: 38°   Ceiling: Unl
Heat Index: 43°   Visibility: 10mi
Dew Point: 30°   Wind: 9mph
Humidity: 60%   Direction: 270°W
Pressure: 29.96"   Gusts: NA
Location:  36.83°N, 107.99°W
Report Text: KFMN 212153Z 27008KT 10SM CLR 06/M01 A2996 RMK AO2 SLP151 T00611011
Loading
Personal Weather Stations






























Interactive Weather Map New forecast layout! Learn more

10-Day Weather Forecast

Advertisements
Track Severe Weather on mobile